createdAt,value
2022-07-25T00:00:26.801Z,100.00
2022-07-25T00:03:04.606Z,100.00
2022-07-25T00:05:37.403Z,100.00
2022-07-25T00:08:05.088Z,100.00
2022-07-25T00:10:32.100Z,100.00
2022-07-25T00:12:59.098Z,100.00
2022-07-25T00:15:26.371Z,100.00
2022-07-25T00:17:53.536Z,100.00
2022-07-25T00:20:20.490Z,100.00
2022-07-25T00:22:47.355Z,100.00
2022-07-25T00:25:14.441Z,100.00
2022-07-25T00:27:41.233Z,100.00
2022-07-25T00:30:08.837Z,100.00
2022-07-25T00:32:35.916Z,100.00
2022-07-25T00:35:04.650Z,100.00
2022-07-25T00:37:31.540Z,100.00
2022-07-25T00:39:58.551Z,100.00
2022-07-25T00:42:25.381Z,100.00
2022-07-25T00:44:52.417Z,100.00
2022-07-25T00:47:19.460Z,100.00
2022-07-25T00:49:46.430Z,100.00
2022-07-25T00:52:13.852Z,100.00
2022-07-25T00:54:41.262Z,100.00
2022-07-25T00:57:08.085Z,100.00
2022-07-25T00:59:34.890Z,100.00
2022-07-25T01:02:04.140Z,100.00
2022-07-25T01:04:31.327Z,100.00
2022-07-25T01:06:58.562Z,100.00
2022-07-25T01:09:26.599Z,100.00
2022-07-25T01:11:53.431Z,100.00
2022-07-25T01:14:21.451Z,100.00
2022-07-25T01:16:48.750Z,100.00
2022-07-25T01:19:15.843Z,100.00
2022-07-25T01:21:43.370Z,100.00
2022-07-25T01:24:11.272Z,100.00
2022-07-25T01:26:38.262Z,100.00
2022-07-25T01:29:05.851Z,100.00
2022-07-25T01:31:32.949Z,100.00
2022-07-25T01:33:59.838Z,100.00
2022-07-25T01:36:26.727Z,100.00
2022-07-25T01:38:54.126Z,100.00
2022-07-25T01:41:21.527Z,100.00
2022-07-25T01:43:49.621Z,100.00
2022-07-25T01:46:16.718Z,100.00
2022-07-25T01:48:43.759Z,100.00
2022-07-25T01:51:11.085Z,100.00
2022-07-25T01:53:38.320Z,100.00
2022-07-25T01:56:06.197Z,100.00
2022-07-25T01:58:35.777Z,100.00
2022-07-25T02:01:02.970Z,100.00
2022-07-25T02:03:29.967Z,100.00
2022-07-25T02:05:59.499Z,100.00
2022-07-25T02:08:26.611Z,100.00
2022-07-25T02:10:53.723Z,100.00
2022-07-25T02:13:20.987Z,100.00
2022-07-25T02:15:48.340Z,100.00
2022-07-25T02:18:15.672Z,100.00
2022-07-25T02:20:43.024Z,100.00
2022-07-25T02:23:10.207Z,100.00
2022-07-25T02:25:37.057Z,100.00
2022-07-25T02:28:04.065Z,100.00
2022-07-25T02:30:31.212Z,100.00
2022-07-25T02:32:58.095Z,100.00
2022-07-25T02:35:24.874Z,100.00
2022-07-25T02:37:51.884Z,100.00
2022-07-25T02:40:18.687Z,100.00
2022-07-25T02:42:45.480Z,100.00
2022-07-25T02:45:12.615Z,100.00
2022-07-25T02:47:39.569Z,100.00
2022-07-25T02:50:07.239Z,100.00
2022-07-25T02:52:35.347Z,100.00
2022-07-25T02:55:07.368Z,100.00
2022-07-25T02:57:36.405Z,100.00
2022-07-25T03:00:05.288Z,100.00
2022-07-25T03:02:32.083Z,100.00
2022-07-25T03:04:59.084Z,100.00
2022-07-25T03:07:25.829Z,100.00
2022-07-25T03:09:52.651Z,100.00
2022-07-25T03:12:19.654Z,100.00
2022-07-25T03:14:46.448Z,100.00
2022-07-25T03:17:13.274Z,100.00
2022-07-25T03:19:40.275Z,100.00
2022-07-25T03:22:07.145Z,100.00
2022-07-25T03:24:33.945Z,100.00
2022-07-25T03:27:01.456Z,100.00
2022-07-25T03:29:28.258Z,100.00
2022-07-25T03:31:55.975Z,100.00
2022-07-25T03:34:23.040Z,100.00
2022-07-25T03:36:49.870Z,100.00
2022-07-25T03:39:17.086Z,100.00
2022-07-25T03:41:44.267Z,100.00
2022-07-25T03:44:11.055Z,100.00
2022-07-25T03:46:37.913Z,100.00
2022-07-25T03:49:05.222Z,100.00
2022-07-25T03:51:32.089Z,100.00
2022-07-25T03:54:09.433Z,100.00
2022-07-25T03:56:43.482Z,100.00
2022-07-25T03:59:13.017Z,100.00
2022-07-25T04:01:41.251Z,100.00
2022-07-25T04:04:10.187Z,100.00
2022-07-25T04:06:38.389Z,100.00
2022-07-25T04:09:06.142Z,100.00
2022-07-25T04:11:33.135Z,100.00
2022-07-25T04:13:59.994Z,100.00
2022-07-25T04:16:27.974Z,100.00
2022-07-25T04:18:56.260Z,100.00
2022-07-25T04:21:24.571Z,100.00
2022-07-25T04:23:52.498Z,100.00
2022-07-25T04:26:20.428Z,100.00
2022-07-25T04:28:47.244Z,100.00
2022-07-25T04:31:14.404Z,100.00
2022-07-25T04:33:42.038Z,100.00
2022-07-25T04:36:09.058Z,100.00
2022-07-25T04:38:36.407Z,100.00
2022-07-25T04:41:04.853Z,100.00
2022-07-25T04:43:31.712Z,100.00
2022-07-25T04:45:59.733Z,100.00
2022-07-25T04:48:27.125Z,100.00
2022-07-25T04:50:54.130Z,100.00
2022-07-25T04:53:21.466Z,97.66
2022-07-25T04:55:48.375Z,95.96
2022-07-25T04:58:15.709Z,95.78
2022-07-25T05:00:43.008Z,92.89
2022-07-25T05:03:10.265Z,91.07
2022-07-25T05:05:37.248Z,90.20
2022-07-25T05:08:04.634Z,88.10
2022-07-25T05:10:31.453Z,87.50
2022-07-25T05:12:58.593Z,85.31
2022-07-25T05:15:25.643Z,83.89
2022-07-25T05:17:52.674Z,83.20
2022-07-25T05:20:19.632Z,81.25
2022-07-25T05:22:46.692Z,78.38
2022-07-25T05:25:13.731Z,75.92
2022-07-25T05:27:41.065Z,75.01
2022-07-25T05:30:10.739Z,72.09
2022-07-25T05:32:38.237Z,70.43
2022-07-25T05:35:08.011Z,70.15
2022-07-25T05:37:36.313Z,68.74
2022-07-25T05:40:04.703Z,68.60
2022-07-25T05:42:31.784Z,68.63
2022-07-25T05:44:58.806Z,66.43
2022-07-25T05:47:25.635Z,62.42
2022-07-25T05:49:52.433Z,61.43
2022-07-25T05:52:19.485Z,60.70
2022-07-25T05:54:46.323Z,57.98
2022-07-25T05:57:13.186Z,52.61
2022-07-25T05:59:40.249Z,52.00
2022-07-25T06:02:07.659Z,50.58
2022-07-25T06:04:34.655Z,50.26
2022-07-25T06:07:01.729Z,48.92
2022-07-25T06:09:28.615Z,48.34
2022-07-25T06:11:59.805Z,48.07
2022-07-25T06:14:29.068Z,46.82
2022-07-25T06:16:56.982Z,46.02
2022-07-25T06:19:24.101Z,45.13
2022-07-25T06:21:51.258Z,45.52
2022-07-25T06:24:18.130Z,43.83
2022-07-25T06:26:45.196Z,41.24
2022-07-25T06:29:12.425Z,40.88
2022-07-25T06:31:39.481Z,40.04
2022-07-25T06:34:07.036Z,39.62
2022-07-25T06:36:34.631Z,39.72
2022-07-25T06:39:01.683Z,38.86
2022-07-25T06:41:28.482Z,38.86
2022-07-25T06:43:55.555Z,37.59
2022-07-25T06:46:22.481Z,36.62
2022-07-25T06:48:49.371Z,34.35
2022-07-25T06:51:16.501Z,33.63
2022-07-25T06:53:43.833Z,33.33
2022-07-25T06:56:15.758Z,32.22
2022-07-25T06:58:44.834Z,31.80
2022-07-25T07:01:11.808Z,31.45
2022-07-25T07:03:39.975Z,31.33
2022-07-25T07:06:07.672Z,31.86
2022-07-25T07:08:34.485Z,30.29
2022-07-25T07:11:01.564Z,30.26
2022-07-25T07:13:28.649Z,31.00
2022-07-25T07:15:56.011Z,30.28
2022-07-25T07:18:23.483Z,29.94
2022-07-25T07:20:51.818Z,31.41
2022-07-25T07:23:18.822Z,31.62
2022-07-25T07:25:47.319Z,33.55
2022-07-25T07:28:15.613Z,32.22
2022-07-25T07:33:30.235Z,32.35
2022-07-25T07:35:57.770Z,31.06
2022-07-25T07:38:24.958Z,31.03
2022-07-25T07:40:53.130Z,30.52
2022-07-25T07:43:20.328Z,29.10
2022-07-25T07:45:47.410Z,28.68
2022-07-25T07:48:14.491Z,27.98
2022-07-25T07:50:41.503Z,27.64
2022-07-25T07:53:08.509Z,28.60
2022-07-25T07:55:44.612Z,28.75
2022-07-25T07:58:51.926Z,30.53
2022-07-25T08:01:19.062Z,28.75
2022-07-25T08:03:45.902Z,28.28
2022-07-25T08:06:12.850Z,27.55
2022-07-25T08:08:39.875Z,26.08
2022-07-25T08:11:06.868Z,25.77
2022-07-25T08:13:38.311Z,24.65
2022-07-25T08:16:06.039Z,24.01
2022-07-25T08:18:33.737Z,23.98
2022-07-25T08:21:03.479Z,22.99
2022-07-25T08:23:32.061Z,22.94
2022-07-25T08:25:59.527Z,23.20
2022-07-25T08:28:26.457Z,22.14
2022-07-25T08:30:53.728Z,22.54
2022-07-25T08:33:20.712Z,21.97
2022-07-25T08:35:54.426Z,23.02
2022-07-25T08:38:22.721Z,22.33
2022-07-25T08:40:49.916Z,23.14
2022-07-25T08:43:18.005Z,24.98
2022-07-25T08:45:50.061Z,24.37
2022-07-25T08:48:19.223Z,24.67
2022-07-25T08:50:47.841Z,25.65
2022-07-25T08:53:32.520Z,26.03
2022-07-25T08:56:00.115Z,27.47
2022-07-25T08:58:26.997Z,27.37
2022-07-25T09:00:53.861Z,27.60
2022-07-25T09:03:21.038Z,27.58
2022-07-25T09:05:47.974Z,27.87
2022-07-25T09:08:17.546Z,27.72
2022-07-25T09:10:50.413Z,26.35
2022-07-25T09:13:18.954Z,24.64
2022-07-25T09:15:52.426Z,24.12
2022-07-25T09:18:27.798Z,23.92
2022-07-25T09:21:03.135Z,22.75
2022-07-25T09:23:32.655Z,22.84
2022-07-25T09:26:13.191Z,20.49
2022-07-25T09:28:52.377Z,21.54
2022-07-25T09:31:19.626Z,21.48
2022-07-25T09:34:01.789Z,21.62
2022-07-25T09:36:28.853Z,22.17
2022-07-25T09:38:57.692Z,22.78
2022-07-25T09:41:37.238Z,22.30
2022-07-25T09:44:15.213Z,22.51
2022-07-25T09:46:42.057Z,22.27
2022-07-25T09:49:09.935Z,21.65
2022-07-25T09:51:36.953Z,20.55
2022-07-25T09:54:04.689Z,21.36
2022-07-25T09:56:33.082Z,19.74
2022-07-25T09:59:01.569Z,18.92
2022-07-25T10:01:37.048Z,19.35
2022-07-25T10:04:19.340Z,20.26
2022-07-25T10:07:08.091Z,18.46
2022-07-25T10:09:42.584Z,19.11
2022-07-25T10:12:11.553Z,19.45
2022-07-25T10:14:39.013Z,19.46
2022-07-25T10:17:07.426Z,19.91
2022-07-25T10:19:52.826Z,19.61
2022-07-25T10:22:39.676Z,20.58
2022-07-25T10:25:13.400Z,21.35
2022-07-25T10:27:43.952Z,21.01
2022-07-25T10:30:20.471Z,20.58
2022-07-25T10:32:57.692Z,21.24
2022-07-25T10:35:26.047Z,20.96
2022-07-25T10:37:55.758Z,22.10
2022-07-25T10:40:45.267Z,22.73
2022-07-25T10:43:14.694Z,23.64
2022-07-25T10:45:53.532Z,24.03
2022-07-25T10:48:30.531Z,24.96
2022-07-25T10:51:12.284Z,24.39
2022-07-25T10:53:46.616Z,24.17
2022-07-25T10:56:24.889Z,24.49
2022-07-25T10:58:57.526Z,24.06
2022-07-25T11:01:24.649Z,22.95
2022-07-25T11:03:53.767Z,22.46
2022-07-25T11:06:34.654Z,21.94
2022-07-25T11:09:01.802Z,21.75
2022-07-25T11:11:41.064Z,21.15
2022-07-25T11:14:36.411Z,21.14
2022-07-25T11:17:13.205Z,20.38
2022-07-25T11:19:41.050Z,21.20
2022-07-25T11:22:08.928Z,21.36
2022-07-25T11:24:41.161Z,20.24
2022-07-25T11:27:12.653Z,21.43
2022-07-25T11:29:41.490Z,21.98
2022-07-25T11:32:11.337Z,21.40
2022-07-25T11:34:42.335Z,21.04
2022-07-25T11:37:11.290Z,20.78
2022-07-25T11:39:40.342Z,20.51
2022-07-25T11:42:12.759Z,21.13
2022-07-25T11:44:45.635Z,20.64
2022-07-25T11:47:33.680Z,21.16
2022-07-25T11:50:02.765Z,20.63
2022-07-25T11:52:32.403Z,20.80
2022-07-25T11:55:00.801Z,20.16
2022-07-25T11:57:36.586Z,19.60
2022-07-25T12:00:30.975Z,20.00
2022-07-25T12:03:08.902Z,20.21
2022-07-25T12:05:36.100Z,20.70
2022-07-25T12:08:11.734Z,20.88
2022-07-25T12:10:39.671Z,21.66
2022-07-25T12:13:09.482Z,22.01
2022-07-25T12:15:38.697Z,23.11
2022-07-25T12:18:06.491Z,22.61
2022-07-25T12:20:36.394Z,23.03
2022-07-25T12:23:05.155Z,24.44
2022-07-25T12:25:33.589Z,26.11
2022-07-25T12:28:00.841Z,27.99
2022-07-25T12:30:28.763Z,26.60
2022-07-25T12:32:57.452Z,27.61
2022-07-25T12:35:25.041Z,26.82
2022-07-25T12:37:52.406Z,26.16
2022-07-25T12:40:20.154Z,27.31
2022-07-25T12:42:48.108Z,27.31
2022-07-25T12:45:17.193Z,29.72
2022-07-25T12:47:45.313Z,30.09
2022-07-25T12:50:13.792Z,32.14
2022-07-25T12:52:41.396Z,33.10
2022-07-25T12:55:11.602Z,32.59
2022-07-25T12:57:39.375Z,33.77
2022-07-25T13:00:10.194Z,32.89
2022-07-25T13:02:37.608Z,33.78
2022-07-25T13:05:05.795Z,33.64
2022-07-25T13:07:33.399Z,34.30
2022-07-25T13:10:00.976Z,34.63
2022-07-25T13:12:28.078Z,35.77
2022-07-25T13:14:54.866Z,34.32
2022-07-25T13:17:26.768Z,34.22
2022-07-25T13:19:55.686Z,34.22
2022-07-25T13:22:22.560Z,34.89
2022-07-25T13:24:49.359Z,35.31
2022-07-25T13:27:19.785Z,34.63
2022-07-25T13:29:47.214Z,35.15
2022-07-25T13:32:14.151Z,35.62
2022-07-25T13:34:41.225Z,36.03
2022-07-25T13:37:08.154Z,36.34
2022-07-25T13:39:35.914Z,35.98
2022-07-25T13:42:03.317Z,35.97
2022-07-25T13:44:30.147Z,36.74
2022-07-25T13:46:59.421Z,36.45
2022-07-25T13:49:36.985Z,35.72
2022-07-25T13:52:04.156Z,34.91
2022-07-25T13:54:31.349Z,35.99
2022-07-25T13:56:58.590Z,36.53
2022-07-25T13:59:25.384Z,37.56
2022-07-25T14:01:52.469Z,36.54
2022-07-25T14:04:19.749Z,36.90
2022-07-25T14:06:51.877Z,35.94
2022-07-25T14:09:22.552Z,35.23
2022-07-25T14:11:49.556Z,35.24
2022-07-25T14:14:16.901Z,35.18
2022-07-25T14:16:44.292Z,34.93
2022-07-25T14:19:11.288Z,34.43
2022-07-25T14:21:38.220Z,34.55
2022-07-25T14:24:05.625Z,34.49
2022-07-25T14:26:34.413Z,32.95
2022-07-25T14:29:01.718Z,33.70
2022-07-25T14:31:28.955Z,33.94
2022-07-25T14:33:55.818Z,34.22
2022-07-25T14:36:22.779Z,34.25
2022-07-25T14:38:49.910Z,34.17
2022-07-25T14:41:16.885Z,34.23
2022-07-25T14:43:43.902Z,34.42
2022-07-25T14:46:11.037Z,34.31
2022-07-25T14:48:38.933Z,34.38
2022-07-25T14:51:06.752Z,33.71
2022-07-25T14:53:34.736Z,34.20
2022-07-25T14:56:03.275Z,33.49
2022-07-25T14:58:31.279Z,33.54
2022-07-25T15:00:58.345Z,33.76
2022-07-25T15:03:25.355Z,34.52
2022-07-25T15:05:52.271Z,35.81
2022-07-25T15:21:49.708Z,34.29
2022-07-25T15:24:16.815Z,34.34
2022-07-25T15:26:43.764Z,34.82
2022-07-25T15:29:12.202Z,35.06
2022-07-25T15:31:39.357Z,34.69
2022-07-25T15:34:06.248Z,33.41
2022-07-25T15:36:33.070Z,34.43
2022-07-25T15:39:00.193Z,34.82
2022-07-25T15:41:29.054Z,35.32
2022-07-25T15:43:55.904Z,35.42
2022-07-25T15:46:23.453Z,35.41
2022-07-25T15:48:50.552Z,35.26
2022-07-25T15:51:17.898Z,34.43
2022-07-25T15:53:45.329Z,34.58
2022-07-25T15:56:18.835Z,35.40
2022-07-25T15:58:47.921Z,35.71
2022-07-25T16:01:15.793Z,35.33
2022-07-25T16:03:43.112Z,35.46
2022-07-25T16:06:10.371Z,36.09
2022-07-25T16:08:38.566Z,36.06
2022-07-25T16:11:05.864Z,35.34
2022-07-25T16:13:32.950Z,36.20
2022-07-25T16:16:00.121Z,36.24
2022-07-25T16:18:27.073Z,36.08
2022-07-25T16:20:54.138Z,35.50
2022-07-25T16:23:23.206Z,35.02
2022-07-25T16:25:50.040Z,35.01
2022-07-25T16:28:17.215Z,35.38
2022-07-25T16:30:44.302Z,35.44
2022-07-25T16:33:11.892Z,36.74
2022-07-25T16:35:38.830Z,36.69
2022-07-25T16:38:05.878Z,36.88
2022-07-25T16:40:32.946Z,37.20
2022-07-25T16:42:59.984Z,36.99
2022-07-25T16:45:27.879Z,36.65
2022-07-25T16:47:54.843Z,36.72
2022-07-25T16:50:22.143Z,36.55
2022-07-25T16:52:49.167Z,36.87
2022-07-25T16:55:16.077Z,37.13
2022-07-25T16:57:42.880Z,37.36
2022-07-25T17:00:10.443Z,37.68
2022-07-25T17:02:37.484Z,37.43
2022-07-25T17:05:04.909Z,38.39
2022-07-25T17:07:32.498Z,38.85
2022-07-25T17:09:59.367Z,38.89
2022-07-25T17:12:26.239Z,39.35
2022-07-25T17:14:53.914Z,39.91
2022-07-25T17:17:20.821Z,40.40
2022-07-25T17:19:47.789Z,41.02
2022-07-25T17:22:14.922Z,41.78
2022-07-25T17:24:41.972Z,42.17
2022-07-25T17:27:09.946Z,43.27
2022-07-25T17:29:37.504Z,43.53
2022-07-25T17:32:06.960Z,44.57
2022-07-25T17:34:34.033Z,45.08
2022-07-25T17:37:03.863Z,46.00
2022-07-25T17:39:31.021Z,47.41
2022-07-25T17:41:58.263Z,48.12
2022-07-25T17:44:25.370Z,48.84
2022-07-25T17:46:53.230Z,49.26
2022-07-25T17:49:21.800Z,49.82
2022-07-25T17:51:49.061Z,50.48
2022-07-25T17:54:16.177Z,51.43
2022-07-25T17:56:43.119Z,51.50
2022-07-25T17:59:10.178Z,52.63
2022-07-25T18:01:37.074Z,52.90
2022-07-25T18:04:04.246Z,53.68
2022-07-25T18:06:31.955Z,53.56
2022-07-25T18:08:58.828Z,53.61
2022-07-25T18:11:25.781Z,54.64
2022-07-25T18:13:52.808Z,53.98
2022-07-25T18:16:19.715Z,54.59
2022-07-25T18:18:46.621Z,54.65
2022-07-25T18:21:13.646Z,54.65
2022-07-25T18:23:40.472Z,55.54
2022-07-25T18:26:07.290Z,55.95
2022-07-25T18:28:36.107Z,56.65
2022-07-25T18:31:02.982Z,56.79
2022-07-25T18:33:30.000Z,56.93
2022-07-25T18:35:57.145Z,56.71
2022-07-25T18:38:23.969Z,58.50
2022-07-25T18:41:06.514Z,60.67
2022-07-25T18:43:37.868Z,62.27
2022-07-25T18:46:04.981Z,64.56
2022-07-25T18:48:34.660Z,66.02
2022-07-25T18:51:04.978Z,67.98
2022-07-25T18:53:31.910Z,70.67
2022-07-25T18:55:58.903Z,70.83
2022-07-25T18:58:26.611Z,72.23
2022-07-25T19:00:53.453Z,72.86
2022-07-25T19:03:20.278Z,73.34
2022-07-25T19:05:47.816Z,74.47
2022-07-25T19:08:15.176Z,74.87
2022-07-25T19:10:42.147Z,77.01
2022-07-25T19:13:15.206Z,79.76
2022-07-25T19:15:48.602Z,80.11
2022-07-25T19:18:15.730Z,81.02
2022-07-25T19:20:43.858Z,81.11
2022-07-25T19:23:10.629Z,82.46
2022-07-25T19:25:37.789Z,83.18
2022-07-25T19:28:04.956Z,84.27
2022-07-25T19:30:31.792Z,85.36
2022-07-25T19:32:58.921Z,85.21
2022-07-25T19:35:26.406Z,85.72
2022-07-25T19:37:53.325Z,86.76
2022-07-25T19:40:20.375Z,86.87
2022-07-25T19:42:47.290Z,86.59
2022-07-25T19:45:14.214Z,88.26
2022-07-25T19:47:41.208Z,88.17
2022-07-25T19:50:08.441Z,88.97
2022-07-25T19:52:36.425Z,90.46
2022-07-25T19:55:03.752Z,91.75
2022-07-25T19:57:30.844Z,91.82
2022-07-25T19:59:57.778Z,92.51
2022-07-25T20:02:24.925Z,94.26
2022-07-25T20:04:51.866Z,95.22
2022-07-25T20:07:18.790Z,96.14
2022-07-25T20:09:45.864Z,95.68
2022-07-25T20:12:12.723Z,97.16
2022-07-25T20:14:39.553Z,97.55
2022-07-25T20:17:08.155Z,98.16
2022-07-25T20:19:35.113Z,99.44
2022-07-25T20:22:02.083Z,100.00
2022-07-25T20:24:29.246Z,100.00
2022-07-25T20:26:56.279Z,100.00
2022-07-25T20:29:23.361Z,100.00
2022-07-25T20:31:52.743Z,100.00
2022-07-25T20:34:20.497Z,100.00
2022-07-25T20:36:47.409Z,100.00
2022-07-25T20:39:14.890Z,100.00
2022-07-25T20:41:44.646Z,100.00
2022-07-25T20:44:12.068Z,100.00
2022-07-25T20:46:39.340Z,100.00
2022-07-25T20:49:09.018Z,100.00
2022-07-25T20:51:37.654Z,100.00
2022-07-25T20:54:05.188Z,100.00
2022-07-25T20:56:32.328Z,100.00
2022-07-25T20:58:59.155Z,100.00
2022-07-25T21:01:26.344Z,100.00
2022-07-25T21:03:53.224Z,100.00
2022-07-25T21:06:20.025Z,100.00
2022-07-25T21:08:54.135Z,100.00
2022-07-25T21:11:21.330Z,100.00
2022-07-25T21:13:48.871Z,100.00
2022-07-25T21:16:16.173Z,100.00
2022-07-25T21:18:42.964Z,100.00
2022-07-25T21:21:12.290Z,100.00
2022-07-25T21:23:40.770Z,100.00
2022-07-25T21:26:07.613Z,100.00
2022-07-25T21:28:34.439Z,100.00
2022-07-25T21:31:01.548Z,100.00
2022-07-25T21:33:28.408Z,100.00
2022-07-25T21:35:55.576Z,100.00
2022-07-25T21:38:26.990Z,100.00
2022-07-25T21:40:58.771Z,100.00
2022-07-25T21:43:25.819Z,100.00
2022-07-25T21:45:52.783Z,100.00
2022-07-25T21:48:39.689Z,100.00
2022-07-25T21:51:10.144Z,100.00
2022-07-25T21:53:46.626Z,100.00
2022-07-25T21:56:15.386Z,100.00
2022-07-25T21:58:42.328Z,100.00
2022-07-25T22:01:09.159Z,100.00
2022-07-25T22:03:36.271Z,100.00
2022-07-25T22:06:03.412Z,100.00
2022-07-25T22:08:30.196Z,100.00
2022-07-25T22:10:57.858Z,100.00
2022-07-25T22:13:25.320Z,100.00
2022-07-25T22:15:52.073Z,100.00
2022-07-25T22:18:19.461Z,100.00
2022-07-25T22:20:46.268Z,100.00
2022-07-25T22:23:13.051Z,100.00
2022-07-25T22:25:40.042Z,100.00
2022-07-25T22:28:06.783Z,100.00
2022-07-25T22:30:41.083Z,100.00
2022-07-25T22:33:07.825Z,100.00
2022-07-25T22:35:34.579Z,100.00
2022-07-25T22:38:01.529Z,100.00
2022-07-25T22:40:28.316Z,100.00
2022-07-25T22:42:55.119Z,100.00
2022-07-25T22:45:24.008Z,100.00
2022-07-25T22:47:50.921Z,100.00
2022-07-25T22:50:17.815Z,100.00
2022-07-25T22:52:44.737Z,100.00
2022-07-25T22:55:11.508Z,100.00
2022-07-25T22:57:38.317Z,100.00
2022-07-25T23:00:08.474Z,100.00
2022-07-25T23:02:35.398Z,100.00
2022-07-25T23:05:02.283Z,100.00
2022-07-25T23:07:29.221Z,100.00
2022-07-25T23:09:55.941Z,100.00
2022-07-25T23:12:22.714Z,100.00
2022-07-25T23:14:49.759Z,100.00
2022-07-25T23:17:23.071Z,100.00
2022-07-25T23:19:55.489Z,100.00
2022-07-25T23:22:23.908Z,100.00
2022-07-25T23:24:50.886Z,100.00
2022-07-25T23:27:18.265Z,100.00
2022-07-25T23:29:45.007Z,100.00
2022-07-25T23:32:11.950Z,100.00
2022-07-25T23:34:38.834Z,100.00
2022-07-25T23:37:05.734Z,100.00
2022-07-25T23:39:33.502Z,100.00
2022-07-25T23:42:01.185Z,100.00
2022-07-25T23:44:29.005Z,100.00
2022-07-25T23:46:57.534Z,100.00
2022-07-25T23:49:24.505Z,100.00
2022-07-25T23:51:51.419Z,100.00
2022-07-25T23:54:18.369Z,100.00
2022-07-25T23:56:45.138Z,100.00
2022-07-25T23:59:11.984Z,100.00
